Share

Rennes, France

Saint Jacques (LFRN) Elev 121 ft | 48.07 °N, 1.73 °W | Change Station

Current weather conditions updated 31 minutes ago

Clear
Clear
52 °F
Feels Like 52 °F
N
2
Wind Variable Wind from Variable
Sunrise 7:13 AM
Sunset 8:59 PM
Moon Waning Gibbous

Tomorrow is forecast to be Much Cooler than today.

Pressure 30.12 in
Visibility 6.2 miles
Clouds
Dew Point 36 °F
Humidity 54%
Rainfall 0.00 in
Snow Depth Not available.
UV Not available.
Pollen Not available.
Air Quality Not available.
Flu Activity Not available.
METAR LFRN 172030Z AUTO VRB02KT 9999 NSC 11/02 Q1020

More Conditions Fewer Conditions

Pressure 30.12 in
Visibility 6.2 miles
Clouds
Dew Point 36 °F
Humidity 54%
Rainfall 0.00 in
Snow Depth Not available.
UV Not available.
Pollen Not available.
Air Quality Not available.
Flu Activity Not available.
METAR LFRN 172030Z AUTO VRB02KT 9999 NSC 11/02 Q1020

More Conditions Fewer Conditions

10-Day Forecast

Almanac

Astronomy

Apr. 17, 2014 Rise Set
Actual Time 7:13 AM CEST 8:59 PM CEST
Civil Twilight 6:41 AM CEST 9:32 PM CEST
Nautical Twilight 6:00 AM CEST 10:13 PM CEST
Astronomical Twilight 5:16 AM CEST 10:57 PM CEST
Moon 11:39 PM CEST 8:27 AM CEST
Length of Visible Light 14h 51m
Length of Day
13h 46m
Tomorrow will be 3m 19s longer.
Waning Gibbous, 92% of the Moon is Illuminated
Today
Waning Gibbous
Apr 22
Last Quarter
Apr 29
New
May 6
First Quarter
May 14
Full

Today's Extremes

Country Highs Country Lows

Community

  • Morning Light
    Morning Light
  • New Day
    New Day
  • Lake Michigan Sunrise
    Lake Michigan Sunrise
  • sunset from izmir, narlıdere
    sunset from izmir, narlıdere
  • oregon cherry
    oregon cherry

WunderPhotos

Upload Photos

1,702,123 photos uploaded!

Nearby

Snow Depth

Not available.

Coastal Water Temperatures

Place Temperature
No Stations Reporting

Earthquake Activity

City Distance Mag. Time & Date
No recent earthquake activity has been reported nearby.
Minimum magnitude displayed is 2.5.

Nearby Weather Stations

Station Location Temp. Dew Point Humidity Wind Precip. Elev Updated Type
Laille 52.9 °F 40 °F 62% NNW  at  0.0 mph 0.00 in / hr 69 ft 11:00 PM CEST Rapid Fire
rennes, Gosné 53.1 °F 35 °F 51% NE  at  5.8 mph 0.00 in / hr 249 ft 11:01 PM CEST Rapid Fire

Show More Stations Show Fewer Stations

What do you think?

We're not finished. Please let us know what you like, what you don't like, and what you are still missing.